Time;durP1;ratioP1;P1;durP2;ratioP2;P2;SDS_P1;SDS_P2;PMS_P1;PMS_P2;Temp;Humidity;BMP_temperature;BMP_pressure;BME280_temperature;BME280_humidity;BME280_pressure;Samples;Min_cycle;Max_cycle;Signal;HPM_P1;HPM_P2
2023/04/23 00:00:41;;;;;;;102.55;49.50;;;8.40;99.90;;;;;;5014659;28;20114;-70
2023/04/23 00:03:11;;;;;;;47.85;40.20;;;8.50;99.90;;;;;;5000040;28;20050;-70
2023/04/23 00:05:38;;;;;;;53.75;38.60;;;8.40;99.90;;;;;;5000618;28;20053;-70
2023/04/23 00:08:04;;;;;;;58.35;40.55;;;8.40;99.90;;;;;;5016945;28;20056;-70
2023/04/23 00:10:31;;;;;;;47.10;37.72;;;8.40;99.90;;;;;;4989076;28;20041;-69
2023/04/23 00:12:57;;;;;;;39.25;35.08;;;8.40;99.90;;;;;;4984709;28;20045;-70
2023/04/23 00:15:23;;;;;;;38.60;34.47;;;8.40;99.90;;;;;;4982075;28;20072;-70
2023/04/23 00:17:53;;;;;;;77.05;43.38;;;8.40;99.90;;;;;;5004192;28;20111;-70
2023/04/23 00:20:19;;;;;;;44.05;39.22;;;8.30;99.90;;;;;;5017932;28;20095;-70
2023/04/23 00:22:44;;;;;;;42.33;37.72;;;8.30;99.90;;;;;;5000828;28;20047;-70
2023/04/23 00:25:10;;;;;;;87.25;51.20;;;8.40;99.90;;;;;;5017320;28;20322;-70
2023/04/23 00:27:36;;;;;;;77.70;50.25;;;8.30;99.90;;;;;;5000278;28;20128;-70
2023/04/23 00:30:03;;;;;;;42.63;38.03;;;8.30;99.90;;;;;;5002061;28;20270;-70
2023/04/23 00:32:29;;;;;;;62.83;45.47;;;8.30;99.90;;;;;;5001823;28;20041;-69
2023/04/23 00:34:55;;;;;;;43.45;38.78;;;8.30;99.90;;;;;;4997121;28;20068;-70
2023/04/23 00:37:21;;;;;;;76.53;48.17;;;8.20;99.90;;;;;;4994796;28;20107;-70
2023/04/23 00:39:48;;;;;;;42.78;37.85;;;8.20;99.90;;;;;;5000395;28;20045;-70
2023/04/23 00:42:16;;;;;;;42.05;37.60;;;8.20;99.90;;;;;;4997997;28;20945;-69
2023/04/23 00:44:42;;;;;;;44.75;39.85;;;8.20;99.90;;;;;;5015259;28;20041;-70
2023/04/23 00:47:09;;;;;;;43.50;38.60;;;8.20;99.90;;;;;;5017327;28;20049;-69
2023/04/23 00:49:36;;;;;;;44.85;39.40;;;8.10;99.90;;;;;;4998517;28;20053;-69
2023/04/23 00:52:02;;;;;;;44.47;38.08;;;8.10;99.90;;;;;;5008456;28;20057;-69
2023/04/23 00:54:28;;;;;;;45.72;40.35;;;8.10;99.90;;;;;;5012262;28;20069;-70
2023/04/23 00:56:56;;;;;;;56.70;44.17;;;8.10;99.90;;;;;;4980278;28;20523;-70
2023/04/23 00:59:27;;;;;;;46.05;39.60;;;8.10;99.90;;;;;;4996899;28;20261;-70
2023/04/23 01:01:53;;;;;;;;;;;8.10;99.90;;;;;;5010703;28;20048;-70
2023/04/23 01:04:21;;;;;;;62.28;46.20;;;8.10;99.90;;;;;;5029587;28;19928;-70
2023/04/23 01:06:47;;;;;;;79.63;50.47;;;8.00;99.90;;;;;;5028237;28;20175;-69
2023/04/23 01:09:16;;;;;;;47.28;39.92;;;8.00;99.90;;;;;;5012719;28;20057;-69
2023/04/23 01:11:43;;;;;;;56.20;45.72;;;8.00;99.90;;;;;;4985586;28;20057;-69
2023/04/23 01:14:09;;;;;;;74.00;54.45;;;7.90;99.90;;;;;;5010395;28;21310;-70
2023/04/23 01:16:37;;;;;;;67.57;51.33;;;7.90;99.90;;;;;;5027556;28;20050;-69
2023/04/23 01:19:07;;;;;;;61.65;49.83;;;7.90;99.90;;;;;;5003713;28;21858;-70
2023/04/23 01:21:35;;;;;;;70.45;52.80;;;7.90;99.90;;;;;;4990251;28;20042;-69
2023/04/23 01:24:03;;;;;;;63.03;51.15;;;7.90;99.90;;;;;;5004955;28;20037;-69
2023/04/23 01:26:28;;;;;;;74.50;54.65;;;7.90;99.90;;;;;;5004040;28;20071;-70
2023/04/23 01:28:55;;;;;;;71.68;54.08;;;7.80;99.90;;;;;;4986547;28;20516;-70
2023/04/23 01:31:21;;;;;;;64.65;52.35;;;7.90;99.90;;;;;;4987517;28;20049;-69
2023/04/23 01:33:50;;;;;;;65.82;52.38;;;7.80;99.90;;;;;;5003038;28;20045;-69
2023/04/23 01:36:16;;;;;;;86.50;61.58;;;7.80;99.90;;;;;;5018620;28;21378;-69
2023/04/23 01:38:42;;;;;;;78.13;58.67;;;7.80;99.90;;;;;;4984533;28;20061;-69
2023/04/23 01:41:09;;;;;;;115.63;68.53;;;7.80;99.90;;;;;;4969282;28;20048;-69
2023/04/23 01:43:36;;;;;;;119.80;72.50;;;7.80;99.90;;;;;;4986414;28;20053;-69
2023/04/23 01:46:02;;;;;;;109.50;72.07;;;7.80;99.90;;;;;;5001441;28;21255;-69
2023/04/23 01:48:28;;;;;;;164.65;83.63;;;7.90;99.90;;;;;;5018832;28;20068;-70
2023/04/23 01:50:57;;;;;;;121.15;75.90;;;7.90;99.90;;;;;;4987408;28;20045;-70
2023/04/23 01:53:25;;;;;;;221.10;96.32;;;7.90;99.90;;;;;;5006901;28;20503;-70
2023/04/23 01:55:54;;;;;;;121.43;78.82;;;7.90;99.90;;;;;;5022586;28;20145;-70
2023/04/23 01:58:22;;;;;;;107.15;75.78;;;7.90;99.90;;;;;;5019128;28;20137;-69
2023/04/23 02:00:48;;;;;;;140.57;84.78;;;7.90;99.90;;;;;;5021757;28;20045;-70
2023/04/23 02:03:14;;;;;;;111.65;76.25;;;7.90;99.90;;;;;;4983868;28;20053;-69
2023/04/23 02:05:41;;;;;;;119.05;79.03;;;7.90;99.90;;;;;;4991663;28;20287;-69
2023/04/23 02:08:08;;;;;;;110.43;74.97;;;7.90;99.90;;;;;;5004695;28;20622;-70
2023/04/23 02:10:33;;;;;;;131.57;82.57;;;7.90;99.90;;;;;;5016360;28;20046;-70
2023/04/23 02:13:01;;;;;;;135.35;80.53;;;7.90;99.90;;;;;;4988396;28;20052;-69
2023/04/23 02:15:26;;;;;;;100.70;70.65;;;7.80;99.90;;;;;;5003765;28;20049;-70
2023/04/23 02:17:52;;;;;;;117.35;75.20;;;7.80;99.90;;;;;;5004525;28;20060;-70
2023/04/23 02:20:19;;;;;;;96.50;70.60;;;7.80;99.90;;;;;;4989553;28;20096;-70
2023/04/23 02:22:46;;;;;;;211.88;96.10;;;7.80;99.90;;;;;;5003849;28;20523;-69
2023/04/23 02:25:14;;;;;;;147.90;80.32;;;7.70;99.90;;;;;;5003757;28;20042;-69
2023/04/23 02:27:40;;;;;;;130.35;78.68;;;7.70;99.90;;;;;;5001945;28;20128;-70
2023/04/23 02:30:08;;;;;;;115.10;77.70;;;7.70;99.90;;;;;;5003043;28;21009;-70
2023/04/23 02:32:36;;;;;;;124.43;82.55;;;7.60;99.90;;;;;;4988389;28;20049;-69
2023/04/23 02:35:02;;;;;;;141.57;86.07;;;7.60;99.90;;;;;;4988126;28;20125;-70
2023/04/23 02:37:28;;;;;;;123.53;76.95;;;7.60;99.90;;;;;;5021239;28;20045;-69
2023/04/23 02:39:57;;;;;;;129.70;76.43;;;7.60;99.90;;;;;;5002622;28;20061;-70
2023/04/23 02:42:22;;;;;;;99.47;68.35;;;7.50;99.90;;;;;;5003732;28;20129;-70
2023/04/23 02:44:48;;;;;;;112.38;74.72;;;7.50;99.90;;;;;;5004133;28;20103;-70
2023/04/23 02:47:14;;;;;;;118.00;75.78;;;7.40;99.90;;;;;;5001217;28;20708;-70
2023/04/23 02:49:40;;;;;;;119.28;77.63;;;7.40;99.90;;;;;;4988513;28;20142;-69
2023/04/23 02:52:05;;;;;;;99.10;70.93;;;7.40;99.90;;;;;;5003940;28;20049;-69
2023/04/23 02:54:31;;;;;;;92.65;66.72;;;7.30;99.90;;;;;;5020569;28;20099;-70
2023/04/23 02:56:57;;;;;;;101.80;67.75;;;7.20;99.90;;;;;;4987615;28;20067;-69
2023/04/23 02:59:24;;;;;;;94.10;65.03;;;7.20;99.90;;;;;;4985730;28;20054;-69
2023/04/23 03:01:50;;;;;;;101.53;70.57;;;7.10;99.90;;;;;;4973992;28;20199;-72
2023/04/23 03:04:17;;;;;;;138.05;79.60;;;7.10;99.90;;;;;;5003559;28;20128;-72
2023/04/23 03:06:43;;;;;;;123.07;73.53;;;7.10;99.90;;;;;;5004476;28;20046;-71
2023/04/23 03:09:08;;;;;;;189.88;78.97;;;7.00;99.90;;;;;;4986604;28;20040;-72
2023/04/23 03:11:34;;;;;;;113.35;71.22;;;7.00;99.90;;;;;;5004631;28;20894;-72
2023/04/23 03:14:00;;;;;;;104.25;69.97;;;6.90;99.90;;;;;;4986856;28;20045;-71
2023/04/23 03:16:30;;;;;;;124.88;77.38;;;6.80;99.90;;;;;;5004512;28;20041;-71
2023/04/23 03:18:56;;;;;;;130.82;80.35;;;6.80;99.90;;;;;;5002301;28;20053;-71
2023/04/23 03:21:22;;;;;;;181.18;91.55;;;6.80;99.90;;;;;;5009196;28;20049;-71
2023/04/23 03:23:47;;;;;;;190.45;93.32;;;6.80;99.90;;;;;;4989903;28;20135;-71
2023/04/23 03:26:13;;;;;;;174.00;96.47;;;6.80;99.90;;;;;;4991899;28;20365;-72
2023/04/23 03:28:39;;;;;;;243.15;100.30;;;6.90;99.90;;;;;;4992925;28;20045;-72
2023/04/23 03:31:05;;;;;;;438.75;124.72;;;6.90;99.90;;;;;;5012870;28;20585;-71
2023/04/23 03:33:31;;;;;;;452.42;116.30;;;7.00;99.90;;;;;;5010348;28;20060;-71
2023/04/23 03:35:57;;;;;;;325.23;107.90;;;7.00;99.90;;;;;;5011515;28;20045;-72
2023/04/23 03:38:22;;;;;;;376.00;111.18;;;7.00;99.90;;;;;;4993550;28;20041;-71
2023/04/23 03:40:48;;;;;;;305.15;101.90;;;7.10;99.90;;;;;;5012008;28;20052;-69
2023/04/23 03:43:14;;;;;;;294.40;101.90;;;7.10;99.90;;;;;;5009236;28;20050;-69
2023/04/23 03:45:40;;;;;;;420.90;115.07;;;7.10;99.90;;;;;;4989889;28;20050;-69
2023/04/23 03:48:06;;;;;;;394.33;111.53;;;7.10;99.90;;;;;;4990433;28;20081;-69
2023/04/23 03:50:37;;;;;;;347.90;106.20;;;7.20;99.90;;;;;;4990297;28;20053;-69
2023/04/23 03:53:03;;;;;;;359.95;103.70;;;7.20;99.90;;;;;;5007300;28;20124;-69
2023/04/23 03:55:29;;;;;;;330.50;99.72;;;7.20;99.90;;;;;;4991927;28;20045;-69
2023/04/23 03:57:55;;;;;;;332.95;111.40;;;7.10;99.90;;;;;;5003773;28;20874;-69
2023/04/23 04:00:21;;;;;;;438.40;117.90;;;7.20;99.90;;;;;;5008172;28;20041;-69
2023/04/23 04:02:46;;;;;;;392.80;107.18;;;7.20;99.90;;;;;;4994563;28;20049;-69
2023/04/23 04:05:12;;;;;;;212.10;91.10;;;7.20;99.90;;;;;;5013484;28;20056;-69
2023/04/23 04:07:39;;;;;;;325.08;104.03;;;7.30;99.90;;;;;;5013279;28;20519;-69
2023/04/23 04:10:06;;;;;;;408.05;111.13;;;7.30;99.90;;;;;;5014480;28;20046;-70
2023/04/23 04:12:32;;;;;;;319.15;105.60;;;7.30;99.90;;;;;;5010651;28;20049;-69
2023/04/23 04:14:58;;;;;;;546.97;123.40;;;7.30;99.90;;;;;;5010038;28;20060;-69
2023/04/23 04:17:24;;;;;;;512.25;126.75;;;7.30;99.90;;;;;;5006551;28;20144;-70
2023/04/23 04:19:50;;;;;;;407.85;113.20;;;7.40;99.90;;;;;;5009729;28;20068;-69
2023/04/23 04:22:16;;;;;;;418.35;115.05;;;7.40;99.90;;;;;;4994233;28;20072;-69
2023/04/23 04:24:42;;;;;;;460.08;124.55;;;7.30;99.90;;;;;;4974878;28;20144;-69
2023/04/23 04:27:08;;;;;;;438.60;124.22;;;7.40;99.90;;;;;;4974215;28;20041;-70
2023/04/23 04:29:34;;;;;;;401.75;125.00;;;7.40;99.90;;;;;;5024554;28;20128;-69
2023/04/23 04:32:01;;;;;;;525.08;147.27;;;7.50;99.90;;;;;;5008127;28;20053;-69
2023/04/23 04:34:27;;;;;;;336.83;121.30;;;7.50;99.90;;;;;;5008322;28;20130;-69
2023/04/23 04:36:53;;;;;;;338.92;121.55;;;7.50;99.90;;;;;;4992507;28;20049;-69
2023/04/23 04:39:19;;;;;;;446.33;133.98;;;7.50;99.90;;;;;;5009447;28;20056;-69
2023/04/23 04:41:46;;;;;;;319.98;124.30;;;7.60;99.90;;;;;;4977662;28;20087;-70
2023/04/23 04:44:13;;;;;;;447.55;135.48;;;7.60;99.90;;;;;;5006986;28;20057;-69
2023/04/23 04:46:39;;;;;;;389.83;132.30;;;7.70;99.90;;;;;;5007248;28;20071;-69
2023/04/23 04:49:09;;;;;;;379.73;130.10;;;7.70;99.90;;;;;;5005672;28;20041;-69
2023/04/23 04:51:40;;;;;;;485.35;139.65;;;7.70;99.90;;;;;;4992017;28;20085;-69
2023/04/23 04:54:06;;;;;;;383.42;129.73;;;7.70;99.90;;;;;;5007936;28;20049;-69
2023/04/23 04:56:33;;;;;;;421.52;134.65;;;7.80;99.90;;;;;;5027404;28;20077;-69
2023/04/23 04:58:59;;;;;;;414.85;140.27;;;7.80;99.90;;;;;;4991588;28;20053;-69
2023/04/23 05:01:29;;;;;;;310.85;126.80;;;7.80;99.90;;;;;;4989896;28;20053;-70
2023/04/23 05:03:56;;;;;;;338.23;133.20;;;7.90;99.90;;;;;;5009152;28;20080;-69
2023/04/23 05:06:22;;;;;;;306.05;126.43;;;7.90;99.90;;;;;;5008397;28;20860;-69
2023/04/23 05:08:48;;;;;;;315.80;128.48;;;7.90;99.90;;;;;;4992170;28;20061;-70
2023/04/23 05:11:18;;;;;;;355.23;138.10;;;8.00;99.90;;;;;;5007913;28;20037;-69
2023/04/23 05:13:44;;;;;;;;;;;8.00;99.90;;;;;;5006849;28;20049;-69
2023/04/23 05:16:10;;;;;;;285.30;123.40;;;8.00;99.90;;;;;;5008401;28;20359;-69
2023/04/23 05:18:37;;;;;;;276.90;121.28;;;8.10;99.90;;;;;;5007264;28;20061;-69
2023/04/23 05:21:05;;;;;;;256.25;119.18;;;8.10;99.90;;;;;;4991463;28;20729;-69
2023/04/23 05:23:31;;;;;;;262.38;119.97;;;8.10;99.90;;;;;;5007175;28;20494;-70
2023/04/23 05:25:57;;;;;;;251.88;118.00;;;8.10;99.90;;;;;;5025117;28;20082;-69
2023/04/23 05:28:26;;;;;;;224.63;113.40;;;8.10;99.90;;;;;;5025787;28;20057;-71
2023/04/23 05:30:52;;;;;;;220.55;112.70;;;8.20;99.90;;;;;;5007084;28;20136;-69
2023/04/23 05:33:18;;;;;;;235.20;111.55;;;8.20;99.90;;;;;;5005628;28;20376;-69
2023/04/23 05:35:44;;;;;;;209.10;106.72;;;8.10;99.90;;;;;;4992125;28;21407;-69
2023/04/23 05:38:10;;;;;;;238.57;113.50;;;8.20;99.90;;;;;;5006836;28;20045;-70
2023/04/23 05:40:36;;;;;;;209.77;106.07;;;8.20;99.90;;;;;;5010818;28;20037;-69
2023/04/23 05:43:02;;;;;;;208.73;107.32;;;8.20;99.90;;;;;;5008632;28;20510;-69
2023/04/23 05:45:29;;;;;;;228.10;113.35;;;8.20;99.90;;;;;;4975504;28;20052;-69
2023/04/23 05:47:55;;;;;;;209.98;108.40;;;8.30;99.90;;;;;;5008504;28;20049;-69
2023/04/23 05:50:21;;;;;;;219.25;112.63;;;8.30;99.90;;;;;;5007879;28;20037;-69
2023/04/23 05:52:47;;;;;;;206.45;109.50;;;8.40;99.90;;;;;;5007506;28;20111;-69
2023/04/23 05:55:17;;;;;;;190.98;106.50;;;8.40;99.90;;;;;;5006097;28;20049;-70
2023/04/23 05:57:43;;;;;;;187.02;105.10;;;8.50;99.90;;;;;;4987362;28;20785;-69
2023/04/23 06:00:10;;;;;;;193.07;105.78;;;8.50;99.90;;;;;;4990170;28;20049;-69
2023/04/23 06:02:37;;;;;;;177.65;100.93;;;8.50;99.90;;;;;;5006208;28;20049;-69
2023/04/23 06:05:03;;;;;;;179.85;102.75;;;8.60;99.90;;;;;;5006358;28;20045;-69
2023/04/23 06:07:29;;;;;;;170.73;99.93;;;8.60;99.90;;;;;;5004823;28;20049;-70
2023/04/23 06:09:55;;;;;;;166.63;101.25;;;8.70;99.90;;;;;;5018315;28;21353;-69
2023/04/23 06:12:21;;;;;;;161.75;99.28;;;8.80;99.90;;;;;;5003864;28;20136;-69
2023/04/23 06:14:47;;;;;;;157.55;98.05;;;8.90;99.90;;;;;;4999798;28;20045;-69
2023/04/23 06:17:13;;;;;;;140.32;91.05;;;9.00;99.90;;;;;;5006596;28;20412;-69
2023/04/23 06:19:38;;;;;;;139.43;90.90;;;9.10;99.90;;;;;;5006091;28;20042;-70
2023/04/23 06:22:04;;;;;;;126.32;85.05;;;9.20;99.90;;;;;;5006583;28;21315;-69
2023/04/23 06:24:31;;;;;;;136.13;89.78;;;9.20;99.90;;;;;;4990735;28;20099;-69
2023/04/23 06:26:56;;;;;;;120.53;83.28;;;9.30;99.90;;;;;;5009204;28;20042;-69
2023/04/23 06:29:22;;;;;;;126.38;84.53;;;9.40;99.90;;;;;;4993208;28;20388;-69
2023/04/23 06:31:48;;;;;;;109.03;80.18;;;9.50;99.90;;;;;;5025856;28;20420;-69
2023/04/23 06:34:14;;;;;;;109.47;78.20;;;9.60;99.90;;;;;;4991936;28;20139;-69
2023/04/23 06:36:40;;;;;;;101.65;74.28;;;9.70;99.90;;;;;;5008906;28;20057;-69
2023/04/23 06:39:05;;;;;;;102.97;76.38;;;9.80;99.90;;;;;;5008734;28;20045;-69
2023/04/23 06:41:31;;;;;;;98.63;73.30;;;9.90;99.90;;;;;;4989808;28;20041;-69
2023/04/23 06:43:57;;;;;;;94.78;72.68;;;10.00;99.90;;;;;;5006614;28;20045;-69
2023/04/23 06:46:26;;;;;;;95.32;71.05;;;10.00;99.90;;;;;;4991591;28;20862;-69
2023/04/23 06:48:52;;;;;;;86.63;69.20;;;10.10;99.90;;;;;;5004318;28;20053;-69
2023/04/23 06:51:17;;;;;;;86.93;69.22;;;10.10;99.90;;;;;;5002424;28;20432;-70
2023/04/23 06:53:43;;;;;;;87.90;68.68;;;10.20;99.90;;;;;;5011147;28;20223;-69
2023/04/23 06:56:10;;;;;;;87.95;68.65;;;10.30;99.90;;;;;;5013592;28;21247;-70
2023/04/23 06:58:36;;;;;;;80.78;65.15;;;10.40;99.90;;;;;;4998609;28;20095;-69
2023/04/23 07:01:06;;;;;;;77.30;63.35;;;10.50;99.90;;;;;;4997001;28;20128;-69
2023/04/23 07:03:32;;;;;;;77.95;62.65;;;10.60;99.90;;;;;;5016278;28;20052;-69
2023/04/23 07:05:58;;;;;;;73.93;61.40;;;10.60;99.90;;;;;;5013413;28;20049;-69
2023/04/23 07:08:26;;;;;;;71.70;59.13;;;10.70;99.90;;;;;;4999895;28;20056;-70
2023/04/23 07:10:52;;;;;;;72.18;59.38;;;10.80;99.90;;;;;;4998013;28;20749;-69
2023/04/23 07:13:18;;;;;;;72.57;60.92;;;10.90;99.90;;;;;;5014526;28;20134;-69
2023/04/23 07:15:45;;;;;;;66.32;57.40;;;11.00;99.90;;;;;;5013232;28;20496;-69
2023/04/23 07:18:11;;;;;;;64.05;55.90;;;11.10;99.90;;;;;;4999620;28;20559;-69
2023/04/23 07:20:39;;;;;;;66.82;56.80;;;11.10;99.90;;;;;;4994700;28;20048;-69
2023/04/23 07:23:05;;;;;;;63.88;55.08;;;11.20;99.90;;;;;;5014285;28;20045;-69
2023/04/23 07:25:31;;;;;;;62.33;53.50;;;11.30;99.90;;;;;;5010906;28;20121;-69
2023/04/23 07:27:57;;;;;;;59.80;52.22;;;11.40;99.90;;;;;;4995526;28;20049;-71
2023/04/23 07:30:24;;;;;;;59.50;52.13;;;11.50;99.90;;;;;;5017948;28;20504;-72
2023/04/23 07:32:50;;;;;;;57.90;51.28;;;11.60;99.90;;;;;;5000310;28;20053;-71
2023/04/23 07:35:16;;;;;;;54.88;48.88;;;11.70;99.90;;;;;;5023387;28;20068;-72
2023/04/23 07:37:42;;;;;;;55.47;49.65;;;11.80;99.90;;;;;;4978930;28;20060;-71
2023/04/23 07:40:08;;;;;;;52.22;46.58;;;11.90;99.90;;;;;;5007143;28;20076;-71
2023/04/23 07:42:34;;;;;;;52.55;47.03;;;11.90;99.90;;;;;;5013461;28;20125;-71
2023/04/23 07:45:00;;;;;;;49.63;44.47;;;11.90;99.90;;;;;;4989051;28;20099;-71
2023/04/23 07:47:26;;;;;;;47.97;43.00;;;11.90;99.90;;;;;;4991792;28;20049;-71
2023/04/23 07:49:52;;;;;;;50.03;44.78;;;12.00;99.90;;;;;;4973463;28;20123;-72
2023/04/23 07:52:18;;;;;;;49.53;44.40;;;12.10;99.90;;;;;;4993007;28;20049;-71
2023/04/23 07:54:45;;;;;;;48.97;43.97;;;12.30;99.90;;;;;;4992844;28;20638;-71
2023/04/23 07:57:11;;;;;;;45.92;41.25;;;12.50;99.90;;;;;;4992670;28;20783;-71
2023/04/23 07:59:39;;;;;;;47.70;42.70;;;12.60;99.90;;;;;;4991885;28;20724;-71
2023/04/23 08:02:05;;;;;;;45.88;41.08;;;12.70;99.90;;;;;;4977137;28;20053;-72
2023/04/23 08:04:31;;;;;;;45.03;40.40;;;12.80;99.90;;;;;;4992214;28;20048;-72
2023/04/23 08:06:57;;;;;;;45.55;40.88;;;13.00;99.90;;;;;;4968790;28;20060;-71
2023/04/23 08:09:26;;;;;;;43.88;39.40;;;13.10;99.90;;;;;;4975453;28;20064;-71
2023/04/23 08:11:53;;;;;;;43.72;39.22;;;13.20;99.90;;;;;;4958305;28;20056;-72
2023/04/23 08:14:21;;;;;;;42.90;38.60;;;13.40;99.90;;;;;;4990071;28;20843;-72
2023/04/23 08:16:47;;;;;;;42.45;38.25;;;13.40;99.90;;;;;;4994747;28;20070;-72
2023/04/23 08:19:13;;;;;;;40.80;36.78;;;13.50;99.90;;;;;;4993204;28;20059;-71
2023/04/23 08:21:39;;;;;;;42.72;38.47;;;13.60;99.90;;;;;;4994796;28;20059;-71
2023/04/23 08:24:06;;;;;;;40.85;36.72;;;13.70;99.90;;;;;;4973338;28;20119;-71
2023/04/23 08:26:32;;;;;;;41.38;37.28;;;13.80;99.90;;;;;;4993714;28;20132;-72
2023/04/23 08:29:02;;;;;;;39.65;35.70;;;13.90;99.90;;;;;;4993706;28;20057;-72
2023/04/23 08:31:27;;;;;;;36.87;33.27;;;14.10;99.90;;;;;;4993785;28;20050;-72
2023/04/23 08:33:54;;;;;;;37.88;34.17;;;14.20;99.90;;;;;;4994314;28;20054;-73
2023/04/23 08:36:20;;;;;;;37.03;33.38;;;14.30;99.90;;;;;;4944173;28;20732;-72
2023/04/23 08:38:45;;;;;;;36.42;32.85;;;14.30;99.90;;;;;;4974792;28;20071;-71
2023/04/23 08:41:14;;;;;;;33.95;30.55;;;14.30;99.90;;;;;;4975369;28;20060;-72
2023/04/23 08:43:45;;;;;;;34.95;31.58;;;14.30;99.90;;;;;;5007984;28;20500;-70
2023/04/23 08:46:15;;;;;;;30.83;27.67;;;14.30;99.90;;;;;;4975845;28;20064;-69
2023/04/23 08:48:42;;;;;;;30.33;27.38;;;14.40;99.90;;;;;;4975994;28;20049;-70
2023/04/23 08:51:10;;;;;;;30.25;27.25;;;14.60;99.90;;;;;;4989624;28;20049;-70
2023/04/23 08:53:37;;;;;;;29.17;26.38;;;14.70;99.90;;;;;;4991079;28;20042;-69
2023/04/23 08:56:05;;;;;;;29.60;26.70;;;14.70;99.90;;;;;;4990740;28;20053;-69
2023/04/23 08:58:32;;;;;;;30.13;27.10;;;14.60;99.90;;;;;;4990655;28;20202;-69
2023/04/23 09:00:58;;;;;;;28.13;25.33;;;14.60;99.90;;;;;;4971722;28;20045;-69
2023/04/23 09:03:24;;;;;;;27.30;23.83;;;14.80;99.90;;;;;;4991673;28;20060;-69
2023/04/23 09:05:52;;;;;;;25.70;23.20;;;15.00;99.90;;;;;;4991429;28;20077;-70
2023/04/23 09:08:20;;;;;;;22.35;20.10;;;15.20;99.90;;;;;;4976946;28;20136;-69
2023/04/23 09:10:46;;;;;;;22.40;20.10;;;15.40;99.90;;;;;;4990077;28;20819;-70
2023/04/23 09:13:12;;;;;;;24.90;22.30;;;15.60;99.90;;;;;;4990543;28;20060;-69
2023/04/23 09:15:42;;;;;;;22.67;20.30;;;15.70;99.90;;;;;;4969208;28;20045;-69
2023/04/23 09:18:09;;;;;;;19.67;17.58;;;15.80;99.90;;;;;;4990776;28;20696;-70
2023/04/23 09:20:35;;;;;;;19.30;16.90;;;15.70;99.90;;;;;;4989834;28;20057;-70
2023/04/23 09:23:08;;;;;;;18.25;16.35;;;15.60;99.90;;;;;;4976531;28;20064;-70
2023/04/23 09:25:34;;;;;;;19.50;17.38;;;15.50;99.90;;;;;;4990804;28;21320;-69
2023/04/23 09:28:00;;;;;;;17.42;14.93;;;15.40;99.90;;;;;;4990789;28;20057;-70
2023/04/23 09:30:26;;;;;;;17.70;15.60;;;15.20;99.90;;;;;;4954665;28;21074;-70
2023/04/23 09:32:52;;;;;;;17.88;15.93;;;15.20;99.90;;;;;;4991383;28;20049;-69
2023/04/23 09:35:19;;;;;;;18.38;15.68;;;15.20;99.90;;;;;;4988654;28;20697;-70
2023/04/23 09:37:47;;;;;;;17.38;13.50;;;15.40;99.90;;;;;;4988133;28;20064;-71
2023/04/23 09:40:14;;;;;;;16.27;13.85;;;15.70;99.90;;;;;;4988766;28;20136;-70
2023/04/23 09:42:45;;;;;;;17.25;14.05;;;15.90;99.90;;;;;;5004605;28;20063;-70
2023/04/23 09:45:12;;;;;;;14.35;11.57;;;16.00;99.90;;;;;;4988531;28;20045;-70
2023/04/23 09:47:40;;;;;;;15.43;11.45;;;16.10;99.90;;;;;;4989130;28;20159;-70
2023/04/23 09:50:09;;;;;;;18.80;12.50;;;16.20;99.90;;;;;;4988478;28;20057;-70
2023/04/23 09:52:38;;;;;;;14.32;12.27;;;16.30;99.90;;;;;;4988998;28;20107;-70
2023/04/23 09:55:05;;;;;;;14.48;10.75;;;16.40;99.90;;;;;;4988520;28;20151;-70
2023/04/23 09:57:39;;;;;;;14.25;9.38;;;16.30;99.90;;;;;;4988212;28;20118;-70
2023/04/23 10:00:15;;;;;;;13.23;9.88;;;16.20;99.90;;;;;;5002698;28;20187;-70
2023/04/23 10:02:52;;;;;;;15.15;9.38;;;16.20;99.90;;;;;;4990659;28;20056;-70
2023/04/23 10:05:19;;;;;;;14.88;9.57;;;16.30;99.90;;;;;;4988028;28;20049;-69
2023/04/23 10:07:47;;;;;;;15.73;10.15;;;16.30;99.90;;;;;;4989448;28;20049;-70
2023/04/23 10:10:17;;;;;;;15.00;9.35;;;16.30;99.90;;;;;;4988254;28;20068;-70
2023/04/23 10:12:44;;;;;;;12.77;9.88;;;16.30;99.90;;;;;;4973141;28;20061;-70
2023/04/23 10:15:11;;;;;;;14.10;8.93;;;16.40;99.90;;;;;;5004354;28;20058;-70
2023/04/23 10:17:39;;;;;;;14.07;9.05;;;16.70;99.90;;;;;;4989976;28;20163;-70
2023/04/23 10:20:09;;;;;;;13.43;7.72;;;16.90;99.90;;;;;;4988029;28;20700;-70
2023/04/23 10:22:36;;;;;;;;;;;17.00;99.90;;;;;;4989810;28;20569;-70
2023/04/23 10:25:09;;;;;;;11.88;7.40;;;17.10;99.90;;;;;;4988864;28;19928;-70
2023/04/23 10:27:45;;;;;;;13.50;7.72;;;17.10;99.90;;;;;;4972675;28;20076;-70
2023/04/23 10:30:13;;;;;;;10.98;7.50;;;17.00;99.90;;;;;;4986871;28;20045;-70
2023/04/23 10:32:39;;;;;;;10.45;7.85;;;17.00;99.90;;;;;;4965111;28;20045;-70
2023/04/23 10:35:12;;;;;;;12.93;7.95;;;17.00;99.90;;;;;;4988917;28;20128;-70
2023/04/23 10:37:39;;;;;;;10.80;7.07;;;17.10;99.90;;;;;;4987314;28;20045;-70
2023/04/23 10:40:13;;;;;;;11.27;6.97;;;17.30;99.90;;;;;;4986034;28;20104;-70
2023/04/23 10:42:40;;;;;;;11.48;7.13;;;17.40;99.90;;;;;;4985541;28;20128;-70
2023/04/23 10:45:20;;;;;;;10.25;6.80;;;17.60;99.90;;;;;;4988240;28;20049;-70
2023/04/23 10:47:46;;;;;;;;;;;17.70;99.90;;;;;;5003062;28;20467;-69
2023/04/23 10:50:25;;;;;;;12.52;6.80;;;17.80;99.90;;;;;;5000093;28;19935;-70
2023/04/23 10:52:56;;;;;;;8.43;6.57;;;17.90;99.90;;;;;;4987869;28;20045;-70
2023/04/23 10:55:31;;;;;;;10.10;6.45;;;17.90;99.90;;;;;;4988506;28;20063;-70
2023/04/23 10:58:00;;;;;;;9.35;6.03;;;17.90;99.90;;;;;;4987058;28;20060;-69
2023/04/23 11:00:27;;;;;;;12.85;6.43;;;17.70;99.90;;;;;;4988054;28;20041;-70
2023/04/23 11:02:54;;;;;;;11.57;5.93;;;17.60;99.90;;;;;;4987972;28;20724;-69
2023/04/23 11:05:22;;;;;;;7.80;5.55;;;17.60;99.90;;;;;;4989546;28;20049;-70
2023/04/23 11:08:06;;;;;;;7.88;4.57;;;17.70;99.90;;;;;;4985675;28;20156;-70
2023/04/23 11:10:33;;;;;;;7.57;4.65;;;17.90;99.90;;;;;;4987655;28;20045;-70
2023/04/23 11:13:19;;;;;;;8.88;4.53;;;17.90;99.90;;;;;;5003599;28;20064;-70
2023/04/23 11:15:46;;;;;;;8.50;4.65;;;17.80;98.60;;;;;;4986986;28;20586;-70
2023/04/23 11:18:12;;;;;;;7.22;4.22;;;17.80;99.40;;;;;;5004357;28;20575;-71
2023/04/23 11:20:37;;;;;;;8.35;3.88;;;17.90;99.50;;;;;;4971107;28;20049;-70
2023/04/23 11:23:06;;;;;;;6.90;3.53;;;18.00;98.50;;;;;;4973309;28;20049;-70
2023/04/23 11:25:34;;;;;;;8.10;3.58;;;18.10;98.70;;;;;;5002819;28;20072;-70
2023/04/23 11:28:00;;;;;;;7.93;3.30;;;18.20;96.90;;;;;;4989030;28;20089;-70
2023/04/23 11:30:29;;;;;;;6.05;2.88;;;18.40;96.60;;;;;;4971609;28;20061;-70
2023/04/23 11:32:55;;;;;;;6.88;3.60;;;18.60;94.20;;;;;;4971323;28;20380;-70
2023/04/23 11:35:27;;;;;;;5.38;3.00;;;18.70;92.90;;;;;;5003372;28;20053;-70
2023/04/23 11:37:56;;;;;;;7.97;2.38;;;18.90;92.80;;;;;;5003218;28;20472;-69
2023/04/23 11:40:23;;;;;;;7.90;2.57;;;19.10;91.20;;;;;;4969642;28;20096;-69
2023/04/23 11:42:52;;;;;;;7.38;2.55;;;19.00;86.60;;;;;;4974792;28;20061;-70
2023/04/23 11:45:20;;;;;;;6.95;2.58;;;18.80;90.00;;;;;;4990374;28;20041;-70
2023/04/23 11:47:49;;;;;;;6.90;2.78;;;18.80;89.80;;;;;;5006426;28;20257;-70
2023/04/23 11:50:20;;;;;;;8.00;2.97;;;18.90;87.40;;;;;;4990799;28;20582;-70
2023/04/23 11:52:47;;;;;;;6.68;3.28;;;18.80;84.80;;;;;;4988005;28;20296;-71
2023/04/23 11:55:12;;;;;;;7.40;2.95;;;18.60;86.80;;;;;;4991469;28;20081;-69
2023/04/23 11:57:43;;;;;;;7.88;3.08;;;18.30;86.60;;;;;;4991184;28;20179;-70
2023/04/23 12:00:20;;;;;;;6.82;2.65;;;18.30;88.80;;;;;;4976640;28;20056;-70
2023/04/23 12:02:54;;;;;;;5.68;2.88;;;18.30;89.80;;;;;;4990350;28;20055;-70
2023/04/23 12:05:35;;;;;;;6.40;2.60;;;18.40;90.50;;;;;;4991458;28;21402;-70
2023/04/23 12:08:19;;;;;;;8.07;3.53;;;18.40;89.90;;;;;;4992509;28;20081;-69
2023/04/23 12:10:49;;;;;;;9.23;3.03;;;18.40;90.20;;;;;;4989948;28;20761;-70
2023/04/23 12:13:21;;;;;;;6.85;2.70;;;18.20;90.00;;;;;;4991411;28;20163;-70
2023/04/23 12:15:52;;;;;;;5.35;2.63;;;18.20;86.20;;;;;;4987846;28;21221;-70
2023/04/23 12:18:18;;;;;;;6.25;3.03;;;18.20;88.30;;;;;;4990786;28;20132;-69
2023/04/23 12:20:45;;;;;;;5.95;2.63;;;18.30;89.90;;;;;;5006257;28;20049;-70
2023/04/23 12:23:14;;;;;;;6.47;2.85;;;18.40;89.40;;;;;;4990155;28;20112;-69
2023/04/23 12:25:41;;;;;;;7.50;3.13;;;18.40;87.90;;;;;;4989993;28;20045;-70
2023/04/23 12:28:07;;;;;;;15.10;2.70;;;18.40;87.00;;;;;;4989103;28;20725;-70
2023/04/23 12:30:41;;;;;;;6.07;2.40;;;18.40;85.60;;;;;;4991330;28;20049;-70